sensor_id;sensor_type;location;lat;lon;timestamp;pressure;altitude;pressure_sealevel;temperature;humidity
23166;BME280;11751;42.700;24.170;2023-04-04T00:01:14;92578.06;;;8.19;nan
23166;BME280;11751;42.700;24.170;2023-04-04T00:03:40;92576.75;;;8.20;nan
23166;BME280;11751;42.700;24.170;2023-04-04T00:06:06;92569.63;;;8.09;nan
23166;BME280;11751;42.700;24.170;2023-04-04T00:08:32;92564.28;;;8.21;nan
23166;BME280;11751;42.700;24.170;2023-04-04T00:10:58;92561.66;;;8.23;nan
23166;BME280;11751;42.700;24.170;2023-04-04T00:13:24;92563.44;;;8.28;nan
23166;BME280;11751;42.700;24.170;2023-04-04T00:15:51;92554.94;;;8.26;nan
23166;BME280;11751;42.700;24.170;2023-04-04T00:18:16;92561.16;;;8.34;nan
23166;BME280;11751;42.700;24.170;2023-04-04T00:20:42;92570.75;;;8.23;nan
23166;BME280;11751;42.700;24.170;2023-04-04T00:23:07;92552.47;;;8.13;nan
23166;BME280;11751;42.700;24.170;2023-04-04T00:25:35;92563.47;;;8.11;nan
23166;BME280;11751;42.700;24.170;2023-04-04T00:28:01;92570.19;;;8.25;nan
23166;BME280;11751;42.700;24.170;2023-04-04T00:30:28;92560.63;;;8.18;nan
23166;BME280;11751;42.700;24.170;2023-04-04T00:32:53;92559.13;;;8.17;nan
23166;BME280;11751;42.700;24.170;2023-04-04T00:35:21;92544.63;;;8.19;nan
23166;BME280;11751;42.700;24.170;2023-04-04T00:37:46;92553.13;;;8.21;nan
23166;BME280;11751;42.700;24.170;2023-04-04T00:40:12;92547.41;;;8.19;nan
23166;BME280;11751;42.700;24.170;2023-04-04T00:42:37;92539.69;;;8.27;nan
23166;BME280;11751;42.700;24.170;2023-04-04T00:45:06;92535.44;;;8.26;nan
23166;BME280;11751;42.700;24.170;2023-04-04T00:47:33;92527.78;;;8.26;nan
23166;BME280;11751;42.700;24.170;2023-04-04T00:49:59;92532.22;;;8.29;nan
23166;BME280;11751;42.700;24.170;2023-04-04T00:52:25;92527.53;;;8.32;nan
23166;BME280;11751;42.700;24.170;2023-04-04T00:54:51;92535.72;;;8.30;nan
23166;BME280;11751;42.700;24.170;2023-04-04T00:57:17;92516.81;;;8.38;nan
23166;BME280;11751;42.700;24.170;2023-04-04T00:59:43;92526.09;;;8.40;nan
23166;BME280;11751;42.700;24.170;2023-04-04T01:02:08;92533.88;;;8.42;nan
23166;BME280;11751;42.700;24.170;2023-04-04T01:04:34;92531.41;;;8.46;nan
23166;BME280;11751;42.700;24.170;2023-04-04T01:07:01;92539.78;;;8.46;nan
23166;BME280;11751;42.700;24.170;2023-04-04T01:09:27;92517.19;;;8.51;nan
23166;BME280;11751;42.700;24.170;2023-04-04T01:11:54;92540.41;;;8.53;nan
23166;BME280;11751;42.700;24.170;2023-04-04T01:14:20;92532.03;;;8.63;nan
23166;BME280;11751;42.700;24.170;2023-04-04T01:16:47;92531.47;;;8.64;nan
23166;BME280;11751;42.700;24.170;2023-04-04T01:19:19;92529.66;;;8.50;nan
23166;BME280;11751;42.700;24.170;2023-04-04T01:21:47;92532.59;;;8.52;nan
23166;BME280;11751;42.700;24.170;2023-04-04T01:24:15;92539.84;;;8.64;nan
23166;BME280;11751;42.700;24.170;2023-04-04T01:26:41;92543.63;;;8.59;nan
23166;BME280;11751;42.700;24.170;2023-04-04T01:29:07;92547.91;;;8.60;nan
23166;BME280;11751;42.700;24.170;2023-04-04T01:31:36;92544.81;;;8.56;nan
23166;BME280;11751;42.700;24.170;2023-04-04T01:37:14;92541.31;;;8.65;nan
23166;BME280;11751;42.700;24.170;2023-04-04T01:40:07;92531.75;;;8.59;nan
23166;BME280;11751;42.700;24.170;2023-04-04T01:42:37;92538.16;;;8.52;nan
23166;BME280;11751;42.700;24.170;2023-04-04T01:45:04;92531.28;;;8.53;nan
23166;BME280;11751;42.700;24.170;2023-04-04T01:47:40;92527.66;;;8.60;nan
23166;BME280;11751;42.700;24.170;2023-04-04T01:50:08;92521.22;;;8.67;nan
23166;BME280;11751;42.700;24.170;2023-04-04T01:52:34;92497.09;;;8.62;nan
23166;BME280;11751;42.700;24.170;2023-04-04T01:55:00;92507.69;;;8.73;nan
23166;BME280;11751;42.700;24.170;2023-04-04T01:57:25;92512.56;;;8.72;nan
23166;BME280;11751;42.700;24.170;2023-04-04T01:59:50;92512.41;;;8.70;nan
23166;BME280;11751;42.700;24.170;2023-04-04T02:02:16;92501.69;;;8.76;nan
23166;BME280;11751;42.700;24.170;2023-04-04T02:04:41;92501.28;;;8.80;nan
23166;BME280;11751;42.700;24.170;2023-04-04T02:07:07;92503.47;;;8.81;nan
23166;BME280;11751;42.700;24.170;2023-04-04T02:09:33;92508.91;;;8.79;nan
23166;BME280;11751;42.700;24.170;2023-04-04T02:11:58;92504.06;;;8.89;nan
23166;BME280;11751;42.700;24.170;2023-04-04T02:14:24;92483.06;;;8.79;nan
23166;BME280;11751;42.700;24.170;2023-04-04T02:16:49;92490.53;;;8.76;nan
23166;BME280;11751;42.700;24.170;2023-04-04T02:19:15;92471.16;;;8.78;nan
23166;BME280;11751;42.700;24.170;2023-04-04T02:21:40;92473.06;;;8.76;nan
23166;BME280;11751;42.700;24.170;2023-04-04T02:24:06;92474.38;;;8.65;nan
23166;BME280;11751;42.700;24.170;2023-04-04T02:26:32;92475.25;;;8.77;nan
23166;BME280;11751;42.700;24.170;2023-04-04T02:28:57;92465.41;;;8.76;nan
23166;BME280;11751;42.700;24.170;2023-04-04T02:31:23;92466.44;;;8.71;nan
23166;BME280;11751;42.700;24.170;2023-04-04T02:33:48;92472.34;;;8.75;nan
23166;BME280;11751;42.700;24.170;2023-04-04T02:36:13;92497.44;;;8.75;nan
23166;BME280;11751;42.700;24.170;2023-04-04T02:38:39;92494.94;;;8.79;nan
23166;BME280;11751;42.700;24.170;2023-04-04T02:41:05;92472.19;;;8.83;nan
23166;BME280;11751;42.700;24.170;2023-04-04T02:43:31;92490.41;;;8.84;nan
23166;BME280;11751;42.700;24.170;2023-04-04T02:45:56;92483.50;;;8.85;nan
23166;BME280;11751;42.700;24.170;2023-04-04T02:48:21;92497.56;;;8.77;nan
23166;BME280;11751;42.700;24.170;2023-04-04T02:50:47;92499.38;;;8.82;nan
23166;BME280;11751;42.700;24.170;2023-04-04T02:53:12;92488.50;;;8.86;nan
23166;BME280;11751;42.700;24.170;2023-04-04T02:55:38;92493.94;;;8.84;nan
23166;BME280;11751;42.700;24.170;2023-04-04T02:58:03;92508.34;;;8.90;nan
23166;BME280;11751;42.700;24.170;2023-04-04T03:00:28;92509.38;;;8.85;nan
23166;BME280;11751;42.700;24.170;2023-04-04T03:02:55;92514.81;;;8.93;nan
23166;BME280;11751;42.700;24.170;2023-04-04T03:05:22;92518.50;;;8.95;nan
23166;BME280;11751;42.700;24.170;2023-04-04T03:07:52;92508.94;;;8.98;nan
23166;BME280;11751;42.700;24.170;2023-04-04T03:10:18;92516.00;;;8.90;nan
23166;BME280;11751;42.700;24.170;2023-04-04T03:12:44;92511.56;;;8.96;nan
23166;BME280;11751;42.700;24.170;2023-04-04T03:15:10;92513.81;;;9.07;nan
23166;BME280;11751;42.700;24.170;2023-04-04T03:17:35;92511.28;;;9.02;nan
23166;BME280;11751;42.700;24.170;2023-04-04T03:20:01;92516.72;;;8.81;nan
23166;BME280;11751;42.700;24.170;2023-04-04T03:22:26;92512.28;;;8.87;nan
23166;BME280;11751;42.700;24.170;2023-04-04T03:24:52;92511.69;;;8.79;nan
23166;BME280;11751;42.700;24.170;2023-04-04T03:27:17;92509.06;;;8.81;nan
23166;BME280;11751;42.700;24.170;2023-04-04T03:29:42;92497.06;;;8.98;nan
23166;BME280;11751;42.700;24.170;2023-04-04T03:32:08;92498.25;;;9.04;nan
23166;BME280;11751;42.700;24.170;2023-04-04T03:34:33;92496.47;;;8.99;nan
23166;BME280;11751;42.700;24.170;2023-04-04T03:36:58;92493.50;;;8.97;nan
23166;BME280;11751;42.700;24.170;2023-04-04T03:39:27;92503.63;;;8.93;nan
23166;BME280;11751;42.700;24.170;2023-04-04T03:41:56;92489.25;;;8.87;nan
23166;BME280;11751;42.700;24.170;2023-04-04T03:44:25;92499.22;;;8.80;nan
23166;BME280;11751;42.700;24.170;2023-04-04T03:46:50;92500.09;;;8.83;nan
23166;BME280;11751;42.700;24.170;2023-04-04T03:49:16;92493.63;;;8.80;nan
23166;BME280;11751;42.700;24.170;2023-04-04T03:51:41;92489.41;;;8.98;nan
23166;BME280;11751;42.700;24.170;2023-04-04T03:54:06;92491.75;;;8.92;nan
23166;BME280;11751;42.700;24.170;2023-04-04T03:56:32;92485.84;;;8.88;nan
23166;BME280;11751;42.700;24.170;2023-04-04T03:58:58;92484.69;;;8.91;nan
23166;BME280;11751;42.700;24.170;2023-04-04T04:01:23;92493.06;;;8.91;nan
23166;BME280;11751;42.700;24.170;2023-04-04T04:03:49;92484.81;;;8.84;nan
23166;BME280;11751;42.700;24.170;2023-04-04T04:06:15;92493.06;;;8.91;nan
23166;BME280;11751;42.700;24.170;2023-04-04T04:08:41;92508.19;;;8.88;nan
23166;BME280;11751;42.700;24.170;2023-04-04T04:11:06;92512.75;;;8.93;nan
23166;BME280;11751;42.700;24.170;2023-04-04T04:13:33;92511.00;;;8.98;nan
23166;BME280;11751;42.700;24.170;2023-04-04T04:16:02;92512.47;;;8.99;nan
23166;BME280;11751;42.700;24.170;2023-04-04T04:18:27;92511.84;;;8.81;nan
23166;BME280;11751;42.700;24.170;2023-04-04T04:20:56;92523.47;;;8.87;nan
23166;BME280;11751;42.700;24.170;2023-04-04T04:23:23;92523.00;;;8.81;nan
23166;BME280;11751;42.700;24.170;2023-04-04T04:25:48;92529.94;;;8.99;nan
23166;BME280;11751;42.700;24.170;2023-04-04T04:28:14;92524.06;;;8.86;nan
23166;BME280;11751;42.700;24.170;2023-04-04T04:30:39;92527.44;;;8.94;nan
23166;BME280;11751;42.700;24.170;2023-04-04T04:33:04;92536.09;;;8.88;nan
23166;BME280;11751;42.700;24.170;2023-04-04T04:35:30;92535.53;;;8.99;nan
23166;BME280;11751;42.700;24.170;2023-04-04T04:37:56;92530.41;;;8.96;nan
23166;BME280;11751;42.700;24.170;2023-04-04T04:40:21;92536.84;;;8.89;nan
23166;BME280;11751;42.700;24.170;2023-04-04T04:42:46;92530.06;;;8.82;nan
23166;BME280;11751;42.700;24.170;2023-04-04T04:45:12;92538.44;;;8.82;nan
23166;BME280;11751;42.700;24.170;2023-04-04T04:47:38;92542.22;;;8.77;nan
23166;BME280;11751;42.700;24.170;2023-04-04T04:50:03;92535.31;;;8.78;nan
23166;BME280;11751;42.700;24.170;2023-04-04T04:52:29;92536.41;;;8.92;nan
23166;BME280;11751;42.700;24.170;2023-04-04T04:54:56;92539.81;;;9.00;nan
23166;BME280;11751;42.700;24.170;2023-04-04T04:57:22;92544.78;;;8.92;nan
23166;BME280;11751;42.700;24.170;2023-04-04T04:59:48;92541.38;;;8.84;nan
23166;BME280;11751;42.700;24.170;2023-04-04T05:02:14;92542.44;;;8.89;nan
23166;BME280;11751;42.700;24.170;2023-04-04T05:04:40;92543.47;;;8.93;nan
23166;BME280;11751;42.700;24.170;2023-04-04T05:07:09;92548.28;;;8.83;nan
23166;BME280;11751;42.700;24.170;2023-04-04T05:09:36;92536.53;;;8.85;nan
23166;BME280;11751;42.700;24.170;2023-04-04T05:12:02;92544.31;;;8.86;nan
23166;BME280;11751;42.700;24.170;2023-04-04T05:14:27;92548.56;;;8.87;nan
23166;BME280;11751;42.700;24.170;2023-04-04T05:16:53;92549.34;;;8.97;nan
23166;BME280;11751;42.700;24.170;2023-04-04T05:19:18;92550.09;;;9.07;nan
23166;BME280;11751;42.700;24.170;2023-04-04T05:21:44;92550.56;;;9.13;nan
23166;BME280;11751;42.700;24.170;2023-04-04T05:24:10;92559.94;;;9.08;nan
23166;BME280;11751;42.700;24.170;2023-04-04T05:26:35;92549.25;;;9.14;nan
23166;BME280;11751;42.700;24.170;2023-04-04T05:29:01;92552.03;;;9.14;nan
23166;BME280;11751;42.700;24.170;2023-04-04T05:31:26;92550.72;;;9.25;nan
23166;BME280;11751;42.700;24.170;2023-04-04T05:33:52;92551.91;;;9.31;nan
23166;BME280;11751;42.700;24.170;2023-04-04T05:36:18;92546.63;;;9.26;nan
23166;BME280;11751;42.700;24.170;2023-04-04T05:38:43;92551.59;;;9.27;nan
23166;BME280;11751;42.700;24.170;2023-04-04T05:41:08;92546.19;;;9.29;nan
23166;BME280;11751;42.700;24.170;2023-04-04T05:43:34;92550.88;;;9.27;nan
23166;BME280;11751;42.700;24.170;2023-04-04T05:46:00;92549.84;;;9.32;nan
23166;BME280;11751;42.700;24.170;2023-04-04T05:48:26;92547.38;;;9.45;nan
23166;BME280;11751;42.700;24.170;2023-04-04T05:50:51;92558.53;;;9.45;nan
23166;BME280;11751;42.700;24.170;2023-04-04T05:53:16;92553.56;;;9.53;nan
23166;BME280;11751;42.700;24.170;2023-04-04T05:55:42;92555.78;;;9.64;nan
23166;BME280;11751;42.700;24.170;2023-04-04T05:58:07;92551.22;;;9.59;nan
23166;BME280;11751;42.700;24.170;2023-04-04T06:00:33;92560.63;;;9.54;nan
23166;BME280;11751;42.700;24.170;2023-04-04T06:02:58;92560.63;;;9.54;nan
23166;BME280;11751;42.700;24.170;2023-04-04T06:05:24;92559.00;;;9.51;nan
23166;BME280;11751;42.700;24.170;2023-04-04T06:07:49;92569.44;;;9.60;nan
23166;BME280;11751;42.700;24.170;2023-04-04T06:10:15;92565.19;;;9.59;nan
23166;BME280;11751;42.700;24.170;2023-04-04T06:12:40;92555.16;;;9.56;nan
23166;BME280;11751;42.700;24.170;2023-04-04T06:15:06;92560.63;;;9.73;nan
23166;BME280;11751;42.700;24.170;2023-04-04T06:17:32;92560.63;;;9.73;nan
23166;BME280;11751;42.700;24.170;2023-04-04T06:19:57;92568.28;;;9.82;nan
23166;BME280;11751;42.700;24.170;2023-04-04T06:22:23;92575.63;;;9.87;nan
23166;BME280;11751;42.700;24.170;2023-04-04T06:24:48;92572.09;;;9.96;nan
23166;BME280;11751;42.700;24.170;2023-04-04T06:27:14;92576.06;;;9.93;nan
23166;BME280;11751;42.700;24.170;2023-04-04T06:29:39;92585.06;;;9.82;nan
23166;BME280;11751;42.700;24.170;2023-04-04T06:32:05;92575.75;;;9.79;nan
23166;BME280;11751;42.700;24.170;2023-04-04T06:34:31;92579.47;;;9.82;nan
23166;BME280;11751;42.700;24.170;2023-04-04T06:36:56;92589.47;;;9.94;nan
23166;BME280;11751;42.700;24.170;2023-04-04T06:39:22;92590.94;;;10.14;nan
23166;BME280;11751;42.700;24.170;2023-04-04T06:41:47;92586.81;;;10.24;nan
23166;BME280;11751;42.700;24.170;2023-04-04T06:44:13;92582.38;;;10.40;nan
23166;BME280;11751;42.700;24.170;2023-04-04T06:46:38;92579.84;;;10.44;nan
23166;BME280;11751;42.700;24.170;2023-04-04T06:49:04;92591.44;;;10.60;nan
23166;BME280;11751;42.700;24.170;2023-04-04T06:51:32;92598.50;;;10.70;nan
23166;BME280;11751;42.700;24.170;2023-04-04T06:53:59;92594.94;;;10.70;nan
23166;BME280;11751;42.700;24.170;2023-04-04T06:56:25;92593.16;;;10.74;nan
23166;BME280;11751;42.700;24.170;2023-04-04T06:58:51;92597.59;;;10.77;nan
23166;BME280;11751;42.700;24.170;2023-04-04T07:01:17;92600.34;;;10.87;nan
23166;BME280;11751;42.700;24.170;2023-04-04T07:03:42;92606.06;;;10.98;nan
23166;BME280;11751;42.700;24.170;2023-04-04T07:06:09;92599.59;;;10.96;nan
23166;BME280;11751;42.700;24.170;2023-04-04T07:08:35;92605.59;;;11.11;nan
23166;BME280;11751;42.700;24.170;2023-04-04T07:11:01;92615.72;;;11.16;nan
23166;BME280;11751;42.700;24.170;2023-04-04T07:13:26;92616.25;;;11.24;nan
23166;BME280;11751;42.700;24.170;2023-04-04T07:15:52;92611.97;;;11.32;nan
23166;BME280;11751;42.700;24.170;2023-04-04T07:18:17;92616.63;;;11.39;nan
23166;BME280;11751;42.700;24.170;2023-04-04T07:20:45;92607.06;;;11.33;nan
23166;BME280;11751;42.700;24.170;2023-04-04T07:23:11;92607.84;;;11.24;nan
23166;BME280;11751;42.700;24.170;2023-04-04T07:25:37;92622.16;;;11.28;nan
23166;BME280;11751;42.700;24.170;2023-04-04T07:28:03;92615.53;;;11.23;nan
23166;BME280;11751;42.700;24.170;2023-04-04T07:30:28;92617.44;;;11.21;nan
23166;BME280;11751;42.700;24.170;2023-04-04T07:33:01;92613.22;;;11.10;nan
23166;BME280;11751;42.700;24.170;2023-04-04T07:35:27;92618.19;;;10.91;nan
23166;BME280;11751;42.700;24.170;2023-04-04T07:37:52;92612.91;;;10.86;nan
23166;BME280;11751;42.700;24.170;2023-04-04T07:40:18;92625.28;;;10.73;nan
23166;BME280;11751;42.700;24.170;2023-04-04T07:42:45;92612.06;;;10.64;nan
23166;BME280;11751;42.700;24.170;2023-04-04T07:45:11;92618.13;;;10.51;nan
23166;BME280;11751;42.700;24.170;2023-04-04T07:47:37;92620.19;;;10.51;nan
23166;BME280;11751;42.700;24.170;2023-04-04T07:50:07;92613.72;;;10.48;nan
23166;BME280;11751;42.700;24.170;2023-04-04T07:52:33;92620.50;;;10.45;nan
23166;BME280;11751;42.700;24.170;2023-04-04T07:54:58;92626.13;;;10.36;nan
23166;BME280;11751;42.700;24.170;2023-04-04T07:57:25;92625.38;;;10.35;nan
23166;BME280;11751;42.700;24.170;2023-04-04T07:59:50;92632.28;;;10.34;nan
23166;BME280;11751;42.700;24.170;2023-04-04T08:02:16;92627.75;;;10.29;nan
23166;BME280;11751;42.700;24.170;2023-04-04T08:04:41;92644.53;;;10.29;nan
23166;BME280;11751;42.700;24.170;2023-04-04T08:07:06;92648.50;;;10.17;nan
23166;BME280;11751;42.700;24.170;2023-04-04T08:10:39;92650.09;;;9.92;100.00
23166;BME280;11751;42.700;24.170;2023-04-04T08:13:04;92642.13;;;9.79;100.00
23166;BME280;11751;42.700;24.170;2023-04-04T08:15:30;92648.28;;;9.68;100.00
23166;BME280;11751;42.700;24.170;2023-04-04T08:17:56;92640.38;;;9.74;100.00
23166;BME280;11751;42.700;24.170;2023-04-04T08:20:21;92655.75;;;9.56;100.00
23166;BME280;11751;42.700;24.170;2023-04-04T08:22:47;92647.09;;;9.61;100.00
23166;BME280;11751;42.700;24.170;2023-04-04T08:25:12;92661.69;;;9.79;100.00
23166;BME280;11751;42.700;24.170;2023-04-04T08:27:39;92658.91;;;9.79;100.00
23166;BME280;11751;42.700;24.170;2023-04-04T08:30:05;92658.53;;;9.56;100.00
23166;BME280;11751;42.700;24.170;2023-04-04T08:32:31;92667.41;;;9.71;100.00
23166;BME280;11751;42.700;24.170;2023-04-04T08:34:56;92661.97;;;9.73;100.00
23166;BME280;11751;42.700;24.170;2023-04-04T08:37:23;92671.13;;;9.93;100.00
23166;BME280;11751;42.700;24.170;2023-04-04T08:39:48;92667.47;;;10.00;100.00
23166;BME280;11751;42.700;24.170;2023-04-04T08:42:14;92668.63;;;9.87;100.00
23166;BME280;11751;42.700;24.170;2023-04-04T08:44:44;92671.41;;;9.97;100.00
23166;BME280;11751;42.700;24.170;2023-04-04T08:47:12;92670.66;;;9.87;100.00
23166;BME280;11751;42.700;24.170;2023-04-04T08:49:42;92683.72;;;9.65;100.00
23166;BME280;11751;42.700;24.170;2023-04-04T08:52:14;92684.00;;;9.69;100.00
23166;BME280;11751;42.700;24.170;2023-04-04T08:54:43;92685.00;;;9.55;100.00
23166;BME280;11751;42.700;24.170;2023-04-04T08:57:09;92680.56;;;9.33;100.00
23166;BME280;11751;42.700;24.170;2023-04-04T08:59:34;92679.50;;;9.29;100.00
23166;BME280;11751;42.700;24.170;2023-04-04T09:02:13;92668.75;;;9.25;100.00
23166;BME280;11751;42.700;24.170;2023-04-04T09:04:41;92678.59;;;9.26;100.00
23166;BME280;11751;42.700;24.170;2023-04-04T09:07:08;92683.72;;;9.20;100.00
23166;BME280;11751;42.700;24.170;2023-04-04T09:09:34;92687.53;;;9.15;100.00
23166;BME280;11751;42.700;24.170;2023-04-04T09:12:00;92681.97;;;9.15;100.00
23166;BME280;11751;42.700;24.170;2023-04-04T09:14:29;92677.97;;;9.18;100.00
23166;BME280;11751;42.700;24.170;2023-04-04T09:16:55;92680.22;;;9.20;100.00
23166;BME280;11751;42.700;24.170;2023-04-04T09:19:21;92693.75;;;9.23;100.00
23166;BME280;11751;42.700;24.170;2023-04-04T09:21:48;92685.72;;;9.36;100.00
23166;BME280;11751;42.700;24.170;2023-04-04T09:24:14;92683.25;;;9.50;100.00
23166;BME280;11751;42.700;24.170;2023-04-04T09:26:51;92690.75;;;9.47;100.00
23166;BME280;11751;42.700;24.170;2023-04-04T09:29:20;92687.69;;;9.53;100.00
23166;BME280;11751;42.700;24.170;2023-04-04T09:31:46;92687.41;;;9.68;100.00
23166;BME280;11751;42.700;24.170;2023-04-04T09:34:15;92695.09;;;9.96;100.00
23166;BME280;11751;42.700;24.170;2023-04-04T09:36:41;92696.28;;;9.93;100.00
23166;BME280;11751;42.700;24.170;2023-04-04T09:39:08;92702.00;;;9.85;100.00
23166;BME280;11751;42.700;24.170;2023-04-04T09:41:37;92704.56;;;10.10;100.00
23166;BME280;11751;42.700;24.170;2023-04-04T09:44:04;92709.91;;;10.34;100.00
23166;BME280;11751;42.700;24.170;2023-04-04T09:46:29;92695.16;;;10.43;100.00
23166;BME280;11751;42.700;24.170;2023-04-04T09:48:56;92708.25;;;10.50;100.00
23166;BME280;11751;42.700;24.170;2023-04-04T09:51:33;92708.72;;;10.46;100.00
23166;BME280;11751;42.700;24.170;2023-04-04T09:53:59;92701.66;;;10.55;100.00
23166;BME280;11751;42.700;24.170;2023-04-04T09:56:26;92714.28;;;10.65;100.00
23166;BME280;11751;42.700;24.170;2023-04-04T09:58:51;92718.72;;;10.68;100.00
23166;BME280;11751;42.700;24.170;2023-04-04T10:01:17;92717.84;;;10.56;100.00
23166;BME280;11751;42.700;24.170;2023-04-04T10:03:50;92727.28;;;10.32;100.00
23166;BME280;11751;42.700;24.170;2023-04-04T10:06:16;92722.69;;;10.18;100.00
23166;BME280;11751;42.700;24.170;2023-04-04T10:08:42;92721.94;;;10.18;100.00
23166;BME280;11751;42.700;24.170;2023-04-04T10:11:08;92725.78;;;10.13;100.00
23166;BME280;11751;42.700;24.170;2023-04-04T10:13:35;92731.59;;;9.98;100.00
23166;BME280;11751;42.700;24.170;2023-04-04T10:16:02;92729.31;;;9.58;100.00
23166;BME280;11751;42.700;24.170;2023-04-04T10:18:32;92735.88;;;9.44;100.00
23166;BME280;11751;42.700;24.170;2023-04-04T10:21:01;92740.53;;;9.32;100.00
23166;BME280;11751;42.700;24.170;2023-04-04T10:23:27;92748.50;;;9.45;100.00
23166;BME280;11751;42.700;24.170;2023-04-04T10:25:54;92751.06;;;9.24;100.00
23166;BME280;11751;42.700;24.170;2023-04-04T10:28:20;92754.44;;;8.96;100.00
23166;BME280;11751;42.700;24.170;2023-04-04T10:30:59;92754.31;;;8.77;100.00
23166;BME280;11751;42.700;24.170;2023-04-04T10:36:15;92770.72;;;8.90;100.00
23166;BME280;11751;42.700;24.170;2023-04-04T10:38:54;92773.53;;;8.73;100.00
23166;BME280;11751;42.700;24.170;2023-04-04T10:41:24;92771.88;;;8.70;100.00
23166;BME280;11751;42.700;24.170;2023-04-04T10:43:55;92773.44;;;8.81;100.00
23166;BME280;11751;42.700;24.170;2023-04-04T10:46:23;92783.97;;;8.56;100.00
23166;BME280;11751;42.700;24.170;2023-04-04T10:48:56;92783.25;;;8.55;100.00
23166;BME280;11751;42.700;24.170;2023-04-04T10:51:22;92787.66;;;8.58;100.00
23166;BME280;11751;42.700;24.170;2023-04-04T10:53:48;92792.91;;;8.38;100.00
23166;BME280;11751;42.700;24.170;2023-04-04T10:56:15;92787.19;;;8.36;100.00
23166;BME280;11751;42.700;24.170;2023-04-04T10:58:41;92793.34;;;8.51;100.00
23166;BME280;11751;42.700;24.170;2023-04-04T11:01:08;92789.47;;;8.63;100.00
23166;BME280;11751;42.700;24.170;2023-04-04T11:07:03;92796.53;;;8.64;100.00
23166;BME280;11751;42.700;24.170;2023-04-04T11:09:54;92806.22;;;8.63;100.00
23166;BME280;11751;42.700;24.170;2023-04-04T11:12:27;92801.91;;;8.79;100.00
23166;BME280;11751;42.700;24.170;2023-04-04T11:20:09;92794.25;;;8.97;100.00
23166;BME280;11751;42.700;24.170;2023-04-04T11:22:35;92795.31;;;9.01;100.00
23166;BME280;11751;42.700;24.170;2023-04-04T11:25:33;92791.72;;;8.91;100.00
23166;BME280;11751;42.700;24.170;2023-04-04T11:28:14;92792.16;;;8.88;100.00
23166;BME280;11751;42.700;24.170;2023-04-04T11:34:04;92786.25;;;9.10;100.00
23166;BME280;11751;42.700;24.170;2023-04-04T11:39:20;92784.03;;;8.82;100.00
23166;BME280;11751;42.700;24.170;2023-04-04T11:47:18;92773.25;;;9.58;100.00
23166;BME280;11751;42.700;24.170;2023-04-04T11:49:45;92769.91;;;10.05;100.00
23166;BME280;11751;42.700;24.170;2023-04-04T11:52:13;92767.28;;;10.25;100.00
23166;BME280;11751;42.700;24.170;2023-04-04T11:54:41;92765.56;;;10.49;100.00
23166;BME280;11751;42.700;24.170;2023-04-04T11:57:17;92754.97;;;10.66;100.00
23166;BME280;11751;42.700;24.170;2023-04-04T11:59:45;92764.81;;;10.86;100.00
23166;BME280;11751;42.700;24.170;2023-04-04T12:02:12;92764.69;;;10.65;100.00
23166;BME280;11751;42.700;24.170;2023-04-04T12:04:39;92778.22;;;10.97;100.00
23166;BME280;11751;42.700;24.170;2023-04-04T12:07:16;92763.19;;;10.83;100.00
23166;BME280;11751;42.700;24.170;2023-04-04T12:09:41;92773.66;;;10.83;100.00
23166;BME280;11751;42.700;24.170;2023-04-04T12:12:14;92770.53;;;11.07;100.00
23166;BME280;11751;42.700;24.170;2023-04-04T12:14:42;92777.06;;;11.00;100.00
23166;BME280;11751;42.700;24.170;2023-04-04T12:17:08;92778.50;;;11.20;100.00
23166;BME280;11751;42.700;24.170;2023-04-04T12:19:38;92774.09;;;10.98;99.43
23166;BME280;11751;42.700;24.170;2023-04-04T12:22:04;92763.34;;;10.95;96.43
23166;BME280;11751;42.700;24.170;2023-04-04T12:24:30;92768.72;;;11.21;98.12
23166;BME280;11751;42.700;24.170;2023-04-04T12:26:55;92768.03;;;11.11;97.88
23166;BME280;11751;42.700;24.170;2023-04-04T12:29:24;92769.38;;;11.10;95.08
23166;BME280;11751;42.700;24.170;2023-04-04T12:31:52;92764.34;;;11.18;92.91
23166;BME280;11751;42.700;24.170;2023-04-04T12:34:22;92766.38;;;11.27;91.48
23166;BME280;11751;42.700;24.170;2023-04-04T12:36:50;92772.03;;;11.08;92.99
23166;BME280;11751;42.700;24.170;2023-04-04T12:39:17;92768.91;;;11.04;92.09
23166;BME280;11751;42.700;24.170;2023-04-04T12:41:50;92773.03;;;11.03;92.71
23166;BME280;11751;42.700;24.170;2023-04-04T12:44:36;92763.38;;;10.76;91.26
23166;BME280;11751;42.700;24.170;2023-04-04T12:47:03;92771.59;;;10.74;92.30
23166;BME280;11751;42.700;24.170;2023-04-04T12:49:38;92775.44;;;10.59;93.00
23166;BME280;11751;42.700;24.170;2023-04-04T12:52:04;92771.16;;;10.58;91.37
23166;BME280;11751;42.700;24.170;2023-04-04T12:54:34;92770.41;;;10.58;92.36
23166;BME280;11751;42.700;24.170;2023-04-04T12:57:04;92772.31;;;10.27;92.57
23166;BME280;11751;42.700;24.170;2023-04-04T12:59:34;92772.91;;;10.44;92.94
23166;BME280;11751;42.700;24.170;2023-04-04T13:02:07;92775.72;;;10.44;93.52
23166;BME280;11751;42.700;24.170;2023-04-04T13:04:33;92781.28;;;10.16;95.10
23166;BME280;11751;42.700;24.170;2023-04-04T13:06:59;92778.50;;;10.25;94.77
23166;BME280;11751;42.700;24.170;2023-04-04T13:09:26;92777.47;;;10.30;93.82
23166;BME280;11751;42.700;24.170;2023-04-04T13:11:55;92784.25;;;10.46;93.30
23166;BME280;11751;42.700;24.170;2023-04-04T13:14:21;92781.47;;;10.56;86.82
23166;BME280;11751;42.700;24.170;2023-04-04T13:17:08;92789.13;;;10.74;82.74
23166;BME280;11751;42.700;24.170;2023-04-04T13:19:34;92786.63;;;10.88;81.23
23166;BME280;11751;42.700;24.170;2023-04-04T13:22:01;92792.22;;;10.97;77.71
23166;BME280;11751;42.700;24.170;2023-04-04T13:24:27;92775.84;;;11.03;75.36
23166;BME280;11751;42.700;24.170;2023-04-04T13:26:52;92773.94;;;10.87;75.81
23166;BME280;11751;42.700;24.170;2023-04-04T13:29:18;92772.91;;;10.82;74.98
23166;BME280;11751;42.700;24.170;2023-04-04T13:31:43;92776.16;;;10.88;73.74
23166;BME280;11751;42.700;24.170;2023-04-04T13:34:08;92779.84;;;11.00;74.40